Time;durP1;ratioP1;P1;durP2;ratioP2;P2;SDS_P1;SDS_P2;PMS_P1;PMS_P2;Temp;Humidity;BMP_temperature;BMP_pressure;BME280_temperature;BME280_humidity;BME280_pressure;Samples;Min_cycle;Max_cycle;Signal;HPM_P1;HPM_P2
2024/02/16 00:01:00;;;;;;;5.80;4.70;;;12.60;29.00;;;;;;5078461;28;20470;-41
2024/02/16 00:03:26;;;;;;;5.13;3.57;;;12.60;26.70;;;;;;5079323;28;20430;-42
2024/02/16 00:05:52;;;;;;;5.07;3.73;;;12.60;30.20;;;;;;5078535;28;20238;-42
2024/02/16 00:08:18;;;;;;;4.30;3.73;;;12.60;30.30;;;;;;5078201;28;20458;-42
2024/02/16 00:10:44;;;;;;;4.23;3.57;;;12.60;25.30;;;;;;5078119;28;20427;-41
2024/02/16 00:13:10;;;;;;;4.87;4.23;;;12.60;19.80;;;;;;5077784;28;20475;-43
2024/02/16 00:15:36;;;;;;;4.50;3.67;;;12.60;8.90;;;;;;5078366;28;20176;-45
2024/02/16 00:18:03;;;;;;;4.60;1.90;;;12.60;1.00;;;;;;5077016;28;20227;-46
2024/02/16 00:20:29;;;;;;;5.33;2.10;;;12.90;1.00;;;;;;5075857;28;20177;-44
2024/02/16 00:22:55;;;;;;;2.90;2.43;;;13.50;1.00;;;;;;5075759;28;20732;-41
2024/02/16 00:25:20;;;;;;;3.93;2.60;;;14.20;1.00;;;;;;5076964;28;20906;-42
2024/02/16 00:27:46;;;;;;;2.93;2.30;;;14.80;1.00;;;;;;5075732;28;20790;-42
2024/02/16 00:30:12;;;;;;;4.43;2.90;;;15.30;99.90;;;;;;5075537;28;20590;-43
2024/02/16 00:32:37;;;;;;;3.83;3.27;;;15.50;1.00;;;;;;5076545;28;20204;-42
2024/02/16 00:35:03;;;;;;;3.80;3.17;;;15.40;92.60;;;;;;5076070;28;20466;-42
2024/02/16 00:37:29;;;;;;;8.27;3.10;;;15.20;1.00;;;;;;5074726;28;20173;-44
2024/02/16 00:39:55;;;;;;;3.00;2.60;;;15.00;99.90;;;;;;5076876;28;20480;-42
2024/02/16 00:42:23;;;;;;;3.83;3.43;;;14.70;99.90;;;;;;5077350;28;20516;-45
2024/02/16 00:44:49;;;;;;;3.60;3.10;;;14.50;99.90;;;;;;5075120;28;20422;-44
2024/02/16 00:47:16;;;;;;;6.30;3.50;;;14.30;99.90;;;;;;5075462;28;20830;-43
2024/02/16 00:49:43;;;;;;;3.47;3.17;;;14.10;99.90;;;;;;5075345;28;20510;-42
2024/02/16 00:52:10;;;;;;;4.43;3.10;;;13.90;99.90;;;;;;5076777;28;20773;-41
2024/02/16 00:54:36;;;;;;;5.13;3.60;;;13.80;99.90;;;;;;5074505;28;20455;-44
2024/02/16 00:57:02;;;;;;;3.90;3.20;;;13.70;99.90;;;;;;5076981;28;20583;-42
2024/02/16 00:59:29;;;;;;;3.20;2.90;;;13.60;99.90;;;;;;5077130;28;20419;-41
2024/02/16 01:01:54;;;;;;;3.43;2.73;;;13.50;99.90;;;;;;5091740;28;20557;-44
2024/02/16 01:04:20;;;;;;;5.03;3.50;;;13.50;99.90;;;;;;5095462;28;20730;-43
2024/02/16 01:06:46;;;;;;;3.20;2.90;;;13.40;99.90;;;;;;5095329;28;20580;-42
2024/02/16 01:09:12;;;;;;;3.80;3.10;;;13.40;99.90;;;;;;5095217;28;20214;-43
2024/02/16 01:11:41;;;;;;;4.10;3.43;;;13.30;99.90;;;;;;5094679;28;20432;-42
2024/02/16 01:14:07;;;;;;;5.93;3.70;;;13.30;99.90;;;;;;5096255;28;20445;-42
2024/02/16 01:16:33;;;;;;;5.10;3.10;;;13.30;99.90;;;;;;5096633;28;20446;-44
2024/02/16 01:18:58;;;;;;;4.33;2.93;;;13.30;99.90;;;;;;5078913;28;20797;-41
2024/02/16 01:21:24;;;;;;;3.87;3.40;;;13.30;99.90;;;;;;5097322;28;20423;-41
2024/02/16 01:23:49;;;;;;;3.73;3.20;;;13.30;99.90;;;;;;5097013;28;20580;-43
2024/02/16 01:26:15;;;;;;;4.63;3.60;;;13.30;99.90;;;;;;5097344;28;20173;-41
2024/02/16 01:28:41;;;;;;;3.10;2.80;;;13.30;99.90;;;;;;5096831;28;20459;-41
2024/02/16 01:31:06;;;;;;;3.73;3.03;;;13.30;94.30;;;;;;5097439;28;20223;-42
2024/02/16 01:33:34;;;;;;;4.20;3.40;;;13.30;85.50;;;;;;5078868;28;20302;-46
2024/02/16 01:36:00;;;;;;;3.70;2.80;;;13.30;77.90;;;;;;5101556;28;20177;-44
2024/02/16 01:38:25;;;;;;;2.80;2.40;;;13.30;51.80;;;;;;5101662;28;20426;-42
2024/02/16 01:40:51;;;;;;;2.77;2.47;;;13.30;34.30;;;;;;5100979;28;20216;-43
2024/02/16 01:43:22;;;;;;;3.00;2.40;;;13.30;22.50;;;;;;5100026;28;20459;-44
2024/02/16 01:45:48;;;;;;;2.73;2.40;;;13.30;22.20;;;;;;5100308;28;20203;-43
2024/02/16 01:48:14;;;;;;;3.10;2.80;;;13.30;22.10;;;;;;5101332;28;20848;-42
2024/02/16 01:50:42;;;;;;;3.37;3.07;;;13.30;32.60;;;;;;5082461;28;20447;-44
2024/02/16 01:53:08;;;;;;;2.63;2.37;;;13.30;67.00;;;;;;5081176;28;20476;-40
2024/02/16 01:55:34;;;;;;;3.50;2.70;;;13.30;99.90;;;;;;5082912;28;20418;-44
2024/02/16 01:58:00;;;;;;;2.40;2.20;;;13.30;99.90;;;;;;5066264;28;20426;-42
2024/02/16 02:00:25;;;;;;;3.20;2.50;;;13.30;99.90;;;;;;5099474;28;20233;-43
2024/02/16 02:02:52;;;;;;;3.63;2.57;;;13.30;99.90;;;;;;5082626;28;20519;-41
2024/02/16 02:05:18;;;;;;;3.20;2.40;;;13.30;99.90;;;;;;5100314;28;20441;-41
2024/02/16 02:07:43;;;;;;;2.57;2.00;;;13.30;1.00;;;;;;5100243;28;20525;-42
2024/02/16 02:10:12;;;;;;;2.57;2.33;;;13.20;1.00;;;;;;5100602;28;20445;-46
2024/02/16 02:12:38;;;;;;;2.73;2.33;;;13.20;1.00;;;;;;5100123;28;20219;-43
2024/02/16 02:15:04;;;;;;;3.20;2.50;;;13.20;1.00;;;;;;5100307;28;20653;-43
2024/02/16 02:17:30;;;;;;;3.90;3.00;;;13.20;27.20;;;;;;5100123;28;20500;-42
2024/02/16 02:19:55;;;;;;;2.43;2.23;;;13.20;83.50;;;;;;5100254;28;20512;-43
2024/02/16 02:22:21;;;;;;;3.27;2.60;;;13.20;99.90;;;;;;5100452;28;20180;-44
2024/02/16 02:24:49;;;;;;;3.20;2.30;;;13.20;99.90;;;;;;5100344;28;20522;-41
2024/02/16 02:27:14;;;;;;;3.40;2.50;;;13.10;99.90;;;;;;5100213;28;20184;-43
2024/02/16 02:29:40;;;;;;;2.60;2.40;;;13.10;99.90;;;;;;5100380;28;20417;-42
2024/02/16 02:32:06;;;;;;;3.33;2.33;;;13.10;99.90;;;;;;5098785;28;20677;-43
2024/02/16 02:34:32;;;;;;;3.20;2.43;;;13.10;99.90;;;;;;5099072;28;20188;-43
2024/02/16 02:36:58;;;;;;;3.50;2.00;;;13.10;99.90;;;;;;5099345;28;20503;-42
2024/02/16 02:39:24;;;;;;;3.20;2.30;;;13.10;99.90;;;;;;5081359;28;20249;-41
2024/02/16 02:41:49;;;;;;;2.97;2.17;;;13.10;99.90;;;;;;5099165;28;20164;-44
2024/02/16 02:44:15;;;;;;;3.53;2.37;;;13.10;1.00;;;;;;5100569;28;20573;-42
2024/02/16 02:46:40;;;;;;;3.63;2.10;;;13.10;1.00;;;;;;5098433;28;20184;-42
2024/02/16 02:49:06;;;;;;;2.43;2.13;;;13.10;99.90;;;;;;5098880;28;20181;-44
2024/02/16 02:51:32;;;;;;;2.60;2.20;;;13.10;99.90;;;;;;5081341;28;20191;-43
2024/02/16 02:53:57;;;;;;;2.77;2.37;;;13.00;99.90;;;;;;5098975;28;20180;-43
2024/02/16 02:56:23;;;;;;;3.20;1.90;;;13.00;99.90;;;;;;5099487;28;20308;-42
2024/02/16 02:58:48;;;;;;;3.40;2.50;;;13.00;99.90;;;;;;5099458;28;20164;-43
2024/02/16 03:01:14;;;;;;;3.20;2.27;;;13.00;99.90;;;;;;5099473;28;20220;-44
2024/02/16 03:03:40;;;;;;;2.50;2.00;;;13.00;99.90;;;;;;5099636;28;20263;-43
2024/02/16 03:06:07;;;;;;;3.63;2.40;;;13.00;99.90;;;;;;5081626;28;20189;-44
2024/02/16 03:08:33;;;;;;;6.50;2.70;;;13.00;74.80;;;;;;5099914;28;20405;-42
2024/02/16 03:11:00;;;;;;;2.53;2.23;;;13.00;4.60;;;;;;5098178;28;20430;-41
2024/02/16 03:13:26;;;;;;;3.10;2.40;;;13.00;1.00;;;;;;5099079;28;20478;-41
2024/02/16 03:15:52;;;;;;;3.53;2.50;;;13.00;1.00;;;;;;5099435;28;20881;-43
2024/02/16 03:18:19;;;;;;;3.53;2.37;;;13.00;1.00;;;;;;5099704;28;20270;-41
2024/02/16 03:21:34;;;;;;;3.23;2.20;;;13.00;1.00;;;;;;5099619;28;20409;-41
2024/02/16 03:24:01;;;;;;;2.47;2.10;;;13.00;1.00;;;;;;5098913;28;20414;-42
2024/02/16 03:26:27;;;;;;;3.77;2.77;;;13.00;1.00;;;;;;5099572;28;20429;-40
2024/02/16 03:28:52;;;;;;;3.30;2.87;;;13.00;99.90;;;;;;5098806;28;20418;-42
2024/02/16 03:31:19;;;;;;;2.67;2.47;;;13.00;99.90;;;;;;5099440;28;20310;-41
2024/02/16 03:33:46;;;;;;;4.03;2.30;;;13.00;99.90;;;;;;5098867;28;20207;-41
2024/02/16 03:36:13;;;;;;;3.47;2.63;;;13.00;99.90;;;;;;5080913;28;20417;-41
2024/02/16 03:38:42;;;;;;;3.80;2.80;;;13.00;99.90;;;;;;5099199;28;20424;-41
2024/02/16 03:41:09;;;;;;;3.17;2.67;;;13.00;99.90;;;;;;5099163;28;20418;-41
2024/02/16 03:43:35;;;;;;;2.40;2.20;;;12.90;99.90;;;;;;5081128;28;20808;-44
2024/02/16 03:46:01;;;;;;;3.83;3.43;;;12.90;99.90;;;;;;5098376;28;20515;-42
2024/02/16 03:48:27;;;;;;;3.53;3.00;;;12.90;99.90;;;;;;5099039;28;20437;-42
2024/02/16 03:50:53;;;;;;;4.60;3.50;;;12.90;99.90;;;;;;5062583;28;20196;-41
2024/02/16 03:53:18;;;;;;;3.57;2.90;;;12.90;99.90;;;;;;5099920;28;20891;-43
2024/02/16 03:55:44;;;;;;;3.40;3.07;;;12.90;99.90;;;;;;5081211;28;20198;-40
2024/02/16 03:58:09;;;;;;;3.50;3.20;;;12.90;99.90;;;;;;5099457;28;20181;-42
2024/02/16 04:00:35;;;;;;;2.73;2.43;;;12.90;99.90;;;;;;5098461;28;20223;-39
2024/02/16 04:03:01;;;;;;;2.77;2.57;;;12.90;99.90;;;;;;5098330;28;20625;-41
2024/02/16 04:05:30;;;;;;;3.10;2.80;;;12.90;99.90;;;;;;5098721;28;20593;-41
2024/02/16 04:07:56;;;;;;;3.63;3.00;;;12.90;99.90;;;;;;5098589;28;20181;-40
2024/02/16 04:10:22;;;;;;;4.00;3.20;;;12.90;99.90;;;;;;5098596;28;20544;-42
2024/02/16 04:12:47;;;;;;;4.70;3.17;;;12.90;99.90;;;;;;5096458;28;20269;-41
2024/02/16 04:15:13;;;;;;;4.13;3.43;;;12.90;99.90;;;;;;5097832;28;20169;-40
2024/02/16 04:17:38;;;;;;;3.93;3.53;;;12.90;99.90;;;;;;5095162;28;20240;-40
2024/02/16 04:20:04;;;;;;;3.40;3.10;;;12.90;99.90;;;;;;5096429;28;20236;-39
2024/02/16 04:22:30;;;;;;;3.53;3.20;;;12.80;99.90;;;;;;5079742;28;20187;-42
2024/02/16 04:24:56;;;;;;;3.63;3.27;;;12.80;99.90;;;;;;5096999;28;20705;-40
2024/02/16 04:27:21;;;;;;;4.60;3.20;;;12.90;99.90;;;;;;5079435;28;20241;-40
2024/02/16 04:29:47;;;;;;;4.00;3.20;;;12.90;99.90;;;;;;5097281;28;20183;-41
2024/02/16 04:32:12;;;;;;;3.67;3.30;;;12.90;99.90;;;;;;5096424;28;20330;-41
2024/02/16 04:34:38;;;;;;;4.83;3.50;;;12.90;99.90;;;;;;5097956;28;20294;-41
2024/02/16 04:37:03;;;;;;;3.80;3.50;;;12.90;99.90;;;;;;5095246;28;20661;-41
2024/02/16 04:39:29;;;;;;;3.50;2.97;;;12.80;99.90;;;;;;5096385;28;20215;-42
2024/02/16 04:41:55;;;;;;;4.27;3.40;;;12.80;99.90;;;;;;5095390;28;20180;-42
2024/02/16 04:44:20;;;;;;;4.10;3.33;;;12.80;99.90;;;;;;5094606;28;20584;-40
2024/02/16 04:46:46;;;;;;;3.90;3.50;;;12.80;99.90;;;;;;5078294;28;20183;-40
2024/02/16 04:49:12;;;;;;;3.90;3.50;;;12.80;99.90;;;;;;5095940;28;20189;-40
2024/02/16 04:51:39;;;;;;;3.30;3.00;;;12.80;99.90;;;;;;5095950;28;20168;-42
2024/02/16 04:54:04;;;;;;;3.93;3.00;;;12.80;99.90;;;;;;5096991;28;20701;-42
2024/02/16 04:56:30;;;;;;;4.73;3.30;;;12.80;99.90;;;;;;5095948;28;20431;-41
2024/02/16 04:58:56;;;;;;;3.60;3.20;;;12.80;99.90;;;;;;5094199;28;20549;-44
2024/02/16 05:01:21;;;;;;;3.30;3.00;;;12.80;99.90;;;;;;5093823;28;20216;-41
2024/02/16 05:03:47;;;;;;;4.10;3.70;;;12.80;99.90;;;;;;5093146;28;20516;-41
2024/02/16 05:06:12;;;;;;;3.60;3.30;;;12.80;99.90;;;;;;5093828;28;20266;-41
2024/02/16 05:08:38;;;;;;;3.93;3.50;;;12.80;99.90;;;;;;5074848;28;20183;-42
2024/02/16 05:11:04;;;;;;;3.73;2.90;;;12.70;99.90;;;;;;5094016;28;20307;-43
2024/02/16 05:13:29;;;;;;;3.93;3.53;;;12.70;99.90;;;;;;5095005;28;20304;-44
2024/02/16 05:15:55;;;;;;;4.50;3.33;;;12.70;99.90;;;;;;5096311;28;20467;-41
2024/02/16 05:18:24;;;;;;;4.67;3.40;;;12.70;99.90;;;;;;5096891;28;20183;-45
2024/02/16 05:20:50;;;;;;;3.17;2.87;;;12.70;99.90;;;;;;5079215;28;20180;-41
2024/02/16 05:23:16;;;;;;;4.47;3.10;;;12.70;99.90;;;;;;5097445;28;20470;-42
2024/02/16 05:25:41;;;;;;;3.60;3.30;;;12.70;99.90;;;;;;5097369;28;20295;-40
2024/02/16 05:28:07;;;;;;;4.97;3.27;;;12.70;99.90;;;;;;5097043;28;20241;-41
2024/02/16 05:30:32;;;;;;;3.53;2.90;;;12.70;99.90;;;;;;5097344;28;20191;-45
2024/02/16 05:32:59;;;;;;;3.23;2.93;;;12.70;99.90;;;;;;5079205;28;20212;-40
2024/02/16 05:35:28;;;;;;;4.50;3.47;;;12.70;99.90;;;;;;5098031;28;20176;-44
2024/02/16 05:37:55;;;;;;;3.53;2.80;;;12.60;99.90;;;;;;5096523;28;20406;-43
2024/02/16 05:40:30;;;;;;;5.83;3.60;;;12.60;99.90;;;;;;5097541;28;20410;-41
2024/02/16 05:43:00;;;;;;;3.20;2.90;;;12.60;99.90;;;;;;5097183;28;20710;-41
2024/02/16 05:45:26;;;;;;;3.70;3.10;;;12.60;99.90;;;;;;5096992;28;20505;-45
2024/02/16 05:47:52;;;;;;;4.50;3.30;;;12.60;99.90;;;;;;5096989;28;20418;-40
2024/02/16 05:50:20;;;;;;;3.60;3.30;;;12.60;99.90;;;;;;5096528;28;20188;-41
2024/02/16 05:52:45;;;;;;;5.83;2.90;;;12.60;99.90;;;;;;5095698;28;20556;-40
2024/02/16 05:55:12;;;;;;;3.33;2.90;;;12.60;99.90;;;;;;5096977;28;20527;-40
2024/02/16 05:57:37;;;;;;;3.67;3.37;;;12.50;99.90;;;;;;5095996;28;20168;-40
2024/02/16 06:00:05;;;;;;;3.00;2.53;;;12.50;99.90;;;;;;5093085;28;20422;-42
2024/02/16 06:02:31;;;;;;;3.03;2.70;;;12.50;99.90;;;;;;5094178;28;20228;-42
2024/02/16 06:04:57;;;;;;;3.20;2.70;;;12.50;99.90;;;;;;5092821;28;20481;-41
2024/02/16 06:07:24;;;;;;;3.50;2.80;;;12.50;99.90;;;;;;5093728;28;20438;-43
2024/02/16 06:09:50;;;;;;;4.97;2.80;;;12.50;99.90;;;;;;5090459;28;20422;-41
2024/02/16 06:12:15;;;;;;;3.60;3.30;;;12.40;99.90;;;;;;5091075;28;20474;-41
2024/02/16 06:14:42;;;;;;;3.00;2.70;;;12.40;99.90;;;;;;5057171;28;20462;-43
2024/02/16 06:17:08;;;;;;;3.50;3.20;;;12.40;99.90;;;;;;5093301;28;20251;-41
2024/02/16 06:19:34;;;;;;;3.10;2.63;;;12.40;99.90;;;;;;5093024;28;20752;-41
2024/02/16 06:22:00;;;;;;;3.17;2.83;;;12.40;99.90;;;;;;5095211;28;20502;-39
2024/02/16 06:24:27;;;;;;;4.03;2.80;;;12.30;99.90;;;;;;5097800;28;20772;-43
2024/02/16 06:26:54;;;;;;;3.83;3.00;;;12.30;99.90;;;;;;5098620;28;20181;-42
2024/02/16 06:29:20;;;;;;;3.80;3.03;;;12.30;99.90;;;;;;5101871;28;20491;-41
2024/02/16 06:31:48;;;;;;;3.40;2.93;;;12.30;99.90;;;;;;5117518;28;20433;-42
2024/02/16 06:34:15;;;;;;;2.90;2.60;;;12.30;99.90;;;;;;5119614;28;20241;-42
2024/02/16 06:36:41;;;;;;;3.10;2.73;;;12.30;99.90;;;;;;5118361;27;20413;-42
2024/02/16 06:39:07;;;;;;;3.10;2.60;;;12.30;99.90;;;;;;5118278;28;20413;-42
2024/02/16 06:41:32;;;;;;;9.53;1.37;;;12.30;99.90;;;;;;5113482;28;20686;-45
2024/02/16 06:43:58;;;;;;;2.53;1.20;;;12.40;1.00;;;;;;5114226;28;20569;-42
2024/02/16 06:46:24;;;;;;;2.63;1.93;;;13.30;99.90;;;;;;5116667;28;20210;-41
2024/02/16 06:48:52;;;;;;;2.20;1.90;;;13.60;99.90;;;;;;5113785;28;20186;-43
2024/02/16 06:51:17;;;;;;;2.70;1.97;;;13.70;99.90;;;;;;5113781;28;20464;-40
2024/02/16 06:53:43;;;;;;;4.20;2.53;;;13.70;30.70;;;;;;5097726;28;20505;-42
2024/02/16 06:56:09;;;;;;;2.50;2.20;;;13.60;1.00;;;;;;5117374;28;20457;-40
2024/02/16 06:58:36;;;;;;;4.20;2.90;;;13.40;99.90;;;;;;5117063;28;20316;-42
2024/02/16 07:01:03;;;;;;;3.50;2.50;;;13.30;45.10;;;;;;5114643;28;20405;-41
2024/02/16 07:03:29;;;;;;;2.93;2.60;;;13.20;1.00;;;;;;5115311;28;20637;-42
2024/02/16 07:05:56;;;;;;;3.40;2.40;;;13.10;1.00;;;;;;5114254;28;20521;-42
2024/02/16 07:08:23;;;;;;;3.00;2.70;;;13.00;1.00;;;;;;5113236;28;20323;-44
2024/02/16 07:10:51;;;;;;;4.00;3.43;;;13.00;1.00;;;;;;5112467;28;20417;-42
2024/02/16 07:13:17;;;;;;;3.97;3.20;;;12.90;1.00;;;;;;5113429;28;20863;-40
2024/02/16 07:15:43;;;;;;;4.20;3.40;;;12.90;99.90;;;;;;5115478;28;20828;-43
2024/02/16 07:18:09;;;;;;;7.17;3.10;;;13.00;99.90;;;;;;5114749;28;20497;-42
2024/02/16 07:20:36;;;;;;;2.77;2.30;;;13.10;99.90;;;;;;5113420;28;20331;-41
2024/02/16 07:23:02;;;;;;;6.20;3.53;;;13.30;99.90;;;;;;5115172;28;20873;-42
2024/02/16 07:25:28;;;;;;;2.97;2.67;;;13.40;99.90;;;;;;5118065;28;20429;-45
2024/02/16 07:27:54;;;;;;;4.93;3.07;;;13.50;99.90;;;;;;5116818;28;20183;-43
2024/02/16 07:30:19;;;;;;;3.53;2.67;;;13.60;99.90;;;;;;5116444;27;20281;-42
2024/02/16 07:32:50;;;;;;;3.23;2.60;;;13.60;99.20;;;;;;5114999;28;20504;-41
2024/02/16 07:35:16;;;;;;;3.60;2.63;;;13.70;76.70;;;;;;5117876;28;20545;-42
2024/02/16 07:37:42;;;;;;;3.57;2.77;;;13.70;49.10;;;;;;5116209;28;20453;-42
2024/02/16 07:40:09;;;;;;;6.67;3.23;;;13.80;33.40;;;;;;5115225;28;20180;-41
2024/02/16 07:42:39;;;;;;;3.50;2.63;;;13.80;21.10;;;;;;5115232;28;20477;-41
2024/02/16 07:45:05;;;;;;;3.70;2.23;;;13.90;10.20;;;;;;5116632;28;20856;-41
2024/02/16 07:47:32;;;;;;;4.20;2.53;;;13.90;1.00;;;;;;5115134;28;20467;-41
2024/02/16 07:49:58;;;;;;;2.90;2.47;;;14.10;1.00;;;;;;5111891;28;20433;-43
2024/02/16 07:52:23;;;;;;;5.97;2.70;;;14.20;1.00;;;;;;5118647;28;20469;-42
2024/02/16 07:54:51;;;;;;;5.10;2.93;;;14.50;1.00;;;;;;5115665;28;20509;-42
2024/02/16 07:57:17;;;;;;;3.47;2.60;;;14.70;1.00;;;;;;5117489;28;20434;-42
2024/02/16 07:59:43;;;;;;;3.90;3.00;;;15.00;1.00;;;;;;5118638;28;20421;-43
2024/02/16 08:02:09;;;;;;;3.63;3.20;;;15.40;1.00;;;;;;5112382;28;20765;-41
2024/02/16 08:04:35;;;;;;;3.80;2.93;;;15.80;1.00;;;;;;5113590;28;20422;-41
2024/02/16 08:07:01;;;;;;;2.83;2.53;;;16.10;1.00;;;;;;5114064;28;20873;-42
2024/02/16 08:09:27;;;;;;;3.20;2.50;;;16.50;1.00;;;;;;5113899;28;20420;-42
2024/02/16 08:11:52;;;;;;;3.73;3.27;;;16.90;1.00;;;;;;5114088;28;20590;-41
2024/02/16 08:14:18;;;;;;;5.57;2.93;;;17.30;1.00;;;;;;5114068;28;20496;-45
2024/02/16 08:16:44;;;;;;;2.60;2.30;;;17.60;1.00;;;;;;5115067;28;20191;-43
2024/02/16 08:19:09;;;;;;;5.20;2.70;;;18.00;1.00;;;;;;5114546;28;20564;-42
2024/02/16 08:21:35;;;;;;;2.50;2.30;;;18.40;1.00;;;;;;5115939;28;20195;-42
2024/02/16 08:24:01;;;;;;;3.73;3.33;;;18.80;1.00;;;;;;5114830;28;20459;-44
2024/02/16 08:26:26;;;;;;;3.03;2.50;;;19.20;99.90;;;;;;5115777;28;20176;-43
2024/02/16 08:28:53;;;;;;;2.90;2.57;;;19.60;99.90;;;;;;5117019;28;20220;-44
2024/02/16 08:31:19;;;;;;;3.93;2.90;;;20.00;99.90;;;;;;5117938;28;20465;-44
2024/02/16 08:33:46;;;;;;;3.40;2.37;;;20.40;99.90;;;;;;5117207;28;20497;-41
2024/02/16 08:36:12;;;;;;;3.27;1.83;;;20.90;99.90;;;;;;5117205;28;20481;-44
2024/02/16 08:38:37;;;;;;;4.10;2.30;;;21.50;1.00;;;;;;5116740;28;20433;-42
2024/02/16 08:41:03;;;;;;;2.47;1.87;;;22.00;1.00;;;;;;5114193;28;20184;-43
2024/02/16 08:43:29;;;;;;;3.60;1.60;;;22.40;1.00;;;;;;5114184;28;20172;-47
2024/02/16 08:45:54;;;;;;;5.13;2.63;;;22.90;1.00;;;;;;5116961;28;20403;-42
2024/02/16 08:48:20;;;;;;;5.77;2.30;;;23.30;99.90;;;;;;5115532;28;20596;-42
2024/02/16 08:50:46;;;;;;;5.40;2.40;;;23.70;99.90;;;;;;5114286;28;20260;-42
2024/02/16 08:53:16;;;;;;;2.30;2.07;;;24.10;99.90;;;;;;5113817;28;20238;-44
2024/02/16 08:55:42;;;;;;;7.50;2.63;;;24.50;99.90;;;;;;5114102;28;20174;-42
2024/02/16 08:58:08;;;;;;;5.80;2.20;;;24.80;99.90;;;;;;5115661;28;20766;-44
2024/02/16 09:00:34;;;;;;;7.20;2.20;;;25.00;99.90;;;;;;5115289;28;20228;-43
2024/02/16 09:03:06;;;;;;;2.73;2.13;;;25.30;99.90;;;;;;5114990;28;20577;-43
2024/02/16 09:05:32;;;;;;;5.00;2.57;;;25.70;99.90;;;;;;5112843;28;20723;-43
2024/02/16 09:07:58;;;;;;;5.63;2.43;;;26.10;99.90;;;;;;5111452;28;20636;-43
2024/02/16 09:10:23;;;;;;;4.00;2.70;;;26.40;99.90;;;;;;5113792;28;20436;-42
2024/02/16 09:12:51;;;;;;;3.67;2.97;;;26.70;99.90;;;;;;5114163;28;20210;-43
2024/02/16 09:15:17;;;;;;;3.33;2.43;;;27.00;99.90;;;;;;5113904;28;20214;-44
2024/02/16 09:17:43;;;;;;;2.20;1.80;;;27.20;99.90;;;;;;5114634;28;20478;-44
2024/02/16 09:20:11;;;;;;;3.20;2.10;;;27.30;99.90;;;;;;5114533;28;20434;-45
2024/02/16 09:22:37;;;;;;;2.87;2.40;;;27.30;99.90;;;;;;5113639;28;20187;-44
2024/02/16 09:25:03;;;;;;;3.10;2.47;;;27.50;99.90;;;;;;5110753;28;20464;-45
2024/02/16 09:27:29;;;;;;;2.37;2.07;;;27.80;99.90;;;;;;5108589;28;20472;-42
2024/02/16 09:29:55;;;;;;;3.10;2.00;;;28.10;99.90;;;;;;5110355;28;20770;-42
2024/02/16 09:32:20;;;;;;;4.97;2.13;;;28.40;99.90;;;;;;5113310;28;20494;-44
2024/02/16 09:34:46;;;;;;;3.67;2.17;;;28.70;99.90;;;;;;5113126;28;20258;-44
2024/02/16 09:37:12;;;;;;;4.03;2.83;;;28.90;99.90;;;;;;5113002;28;20249;-42
2024/02/16 09:39:38;;;;;;;3.10;2.20;;;29.00;99.90;;;;;;5111927;28;20168;-44
2024/02/16 09:42:05;;;;;;;3.10;2.30;;;28.80;99.90;;;;;;5112914;28;20853;-43
2024/02/16 09:44:33;;;;;;;4.60;2.17;;;28.50;99.90;;;;;;5111244;28;20568;-43
2024/02/16 09:47:00;;;;;;;2.57;1.87;;;28.20;99.90;;;;;;5111950;28;20433;-43
2024/02/16 09:49:26;;;;;;;2.13;1.87;;;28.00;99.90;;;;;;5112016;28;20488;-42
2024/02/16 09:51:53;;;;;;;3.10;2.20;;;27.80;99.90;;;;;;5112379;28;20449;-43
2024/02/16 09:54:18;;;;;;;2.10;1.90;;;27.60;99.90;;;;;;5115460;28;20172;-47
2024/02/16 09:56:46;;;;;;;2.50;2.30;;;27.40;99.90;;;;;;5116717;28;20506;-43
2024/02/16 09:59:12;;;;;;;2.53;2.27;;;27.20;99.90;;;;;;5117760;28;20241;-44
2024/02/16 10:01:38;;;;;;;7.47;2.30;;;27.00;99.90;;;;;;5116397;28;20724;-44
2024/02/16 10:04:09;;;;;;;3.37;2.13;;;27.00;99.90;;;;;;5115895;28;20530;-45
2024/02/16 10:06:49;;;;;;;2.27;1.93;;;26.80;99.90;;;;;;5117616;28;20410;-45
2024/02/16 10:09:32;;;;;;;3.57;2.30;;;26.70;99.90;;;;;;5116678;28;20523;-46
2024/02/16 10:11:57;;;;;;;2.10;1.90;;;26.60;99.90;;;;;;5117413;28;20417;-43
2024/02/16 10:14:25;;;;;;;5.50;2.40;;;26.50;99.90;;;;;;5118606;27;20477;-43
2024/02/16 10:17:06;;;;;;;3.83;1.83;;;26.30;99.90;;;;;;5117447;28;20174;-44
2024/02/16 10:19:40;;;;;;;3.00;2.27;;;26.20;99.90;;;;;;5118710;28;20743;-43
2024/02/16 10:22:10;;;;;;;3.10;2.07;;;26.00;99.90;;;;;;5119053;28;20413;-44
2024/02/16 10:24:38;;;;;;;3.00;2.00;;;25.90;99.90;;;;;;5116950;28;20417;-42
2024/02/16 10:27:06;;;;;;;3.17;1.87;;;25.70;99.90;;;;;;5116700;28;20437;-43
2024/02/16 10:29:33;;;;;;;3.80;2.07;;;25.60;99.90;;;;;;5120308;28;20749;-42
2024/02/16 10:31:59;;;;;;;3.60;2.30;;;25.40;99.90;;;;;;5120322;28;20718;-42
2024/02/16 10:34:28;;;;;;;2.17;1.97;;;25.20;99.90;;;;;;5118217;28;20452;-43
2024/02/16 10:36:54;;;;;;;3.10;1.97;;;25.10;99.90;;;;;;5119793;28;20164;-42
2024/02/16 10:39:20;;;;;;;2.50;1.73;;;24.90;99.90;;;;;;5118316;28;20718;-44
2024/02/16 10:41:47;;;;;;;3.47;2.03;;;24.70;99.90;;;;;;5117424;28;20486;-41
2024/02/16 10:44:12;;;;;;;2.17;1.77;;;24.60;99.90;;;;;;5116154;28;20422;-42
2024/02/16 10:46:38;;;;;;;2.57;1.83;;;24.50;99.90;;;;;;5118410;28;20478;-41
2024/02/16 10:49:05;;;;;;;2.60;2.00;;;24.40;99.90;;;;;;5118338;28;20192;-41
2024/02/16 10:51:40;;;;;;;2.47;2.10;;;24.30;99.90;;;;;;5115542;28;20613;-41
2024/02/16 10:54:07;;;;;;;3.60;2.37;;;24.10;99.90;;;;;;5116820;28;20898;-41
2024/02/16 10:56:37;;;;;;;3.73;2.30;;;23.90;99.90;;;;;;5114326;28;20651;-41
2024/02/16 10:59:07;;;;;;;2.53;2.27;;;23.70;99.90;;;;;;5113767;28;20482;-41
2024/02/16 11:01:43;;;;;;;4.00;2.30;;;23.60;99.90;;;;;;5108760;28;20719;-42
2024/02/16 11:04:13;;;;;;;3.70;2.40;;;23.40;99.90;;;;;;5113755;28;20802;-41
2024/02/16 11:06:49;;;;;;;3.07;2.37;;;23.30;99.90;;;;;;5113111;28;20478;-44
2024/02/16 11:09:31;;;;;;;3.97;2.70;;;23.20;99.90;;;;;;5114724;28;20418;-40
2024/02/16 11:12:01;;;;;;;3.40;2.33;;;23.10;99.90;;;;;;5112718;28;20784;-40
2024/02/16 11:14:36;;;;;;;3.00;2.17;;;23.00;99.90;;;;;;5116181;28;20443;-40
2024/02/16 11:17:12;;;;;;;3.23;2.87;;;23.10;99.90;;;;;;5116937;28;20653;-40
2024/02/16 11:19:43;;;;;;;2.83;2.10;;;23.10;99.90;;;;;;5115715;28;20417;-41
2024/02/16 11:22:11;;;;;;;3.87;2.37;;;23.10;99.90;;;;;;5114260;28;20439;-41
2024/02/16 11:24:37;;;;;;;3.50;2.80;;;23.20;99.90;;;;;;5116737;28;20902;-42
2024/02/16 11:27:04;;;;;;;2.87;2.57;;;23.40;99.90;;;;;;5117713;28;20476;-41
2024/02/16 11:29:35;;;;;;;3.00;2.70;;;23.70;99.90;;;;;;5116393;28;20465;-41
2024/02/16 11:32:02;;;;;;;2.87;2.57;;;23.90;99.90;;;;;;5117156;28;20433;-41
2024/02/16 11:34:29;;;;;;;4.53;2.57;;;24.30;99.90;;;;;;5116174;28;20544;-41
2024/02/16 11:36:55;;;;;;;4.30;2.00;;;24.70;99.90;;;;;;5114944;28;20908;-48
2024/02/16 11:39:21;;;;;;;4.43;2.80;;;25.10;99.90;;;;;;5115926;27;20770;-43
2024/02/16 11:41:47;;;;;;;4.10;2.70;;;25.60;99.90;;;;;;5117538;28;20502;-43
2024/02/16 11:44:16;;;;;;;3.13;2.20;;;25.90;99.90;;;;;;5113398;28;20437;-41
2024/02/16 11:46:42;;;;;;;3.50;2.67;;;26.30;99.90;;;;;;5115217;28;20184;-43
2024/02/16 11:49:08;;;;;;;3.70;2.50;;;26.70;99.90;;;;;;5116579;28;20839;-44
2024/02/16 11:51:34;;;;;;;2.63;2.17;;;27.10;99.90;;;;;;5114847;28;20477;-41
2024/02/16 11:53:59;;;;;;;2.90;2.60;;;27.30;99.90;;;;;;5112739;28;20477;-42
2024/02/16 11:56:25;;;;;;;3.20;2.13;;;27.50;99.90;;;;;;5114600;28;20613;-44
2024/02/16 11:58:52;;;;;;;4.90;2.53;;;27.70;99.90;;;;;;5115815;28;20187;-41
2024/02/16 12:01:17;;;;;;;3.60;2.83;;;27.80;99.90;;;;;;5113724;28;20553;-41
2024/02/16 12:03:43;;;;;;;4.00;2.20;;;27.70;99.90;;;;;;5113782;28;20416;-40
2024/02/16 12:06:09;;;;;;;4.40;2.40;;;27.60;99.90;;;;;;5114381;28;20204;-41
2024/02/16 12:08:35;;;;;;;2.53;2.20;;;27.60;99.90;;;;;;5115660;28;20194;-40
2024/02/16 12:11:02;;;;;;;4.30;2.23;;;27.70;99.90;;;;;;5116876;28;20187;-40
2024/02/16 12:13:27;;;;;;;5.60;3.00;;;28.00;99.90;;;;;;5113577;28;20746;-40
2024/02/16 12:15:55;;;;;;;4.83;3.13;;;28.20;99.90;;;;;;5115016;28;20504;-41
2024/02/16 12:18:26;;;;;;;4.23;3.30;;;28.20;99.90;;;;;;5114635;28;20244;-41
2024/02/16 12:21:03;;;;;;;3.40;3.07;;;28.10;99.90;;;;;;5115837;28;20828;-41
2024/02/16 12:23:30;;;;;;;4.03;3.23;;;27.90;99.90;;;;;;5113190;28;20453;-41
2024/02/16 12:25:56;;;;;;;3.50;3.20;;;27.70;99.90;;;;;;5115952;28;20499;-41
2024/02/16 12:28:26;;;;;;;6.10;3.13;;;27.40;99.90;;;;;;5116508;28;20604;-44
2024/02/16 12:30:51;;;;;;;3.80;2.67;;;27.20;99.90;;;;;;5116476;28;20235;-42
2024/02/16 12:33:21;;;;;;;4.53;3.00;;;26.90;99.90;;;;;;5113662;28;20995;-42
2024/02/16 12:35:47;;;;;;;3.40;2.43;;;26.70;99.90;;;;;;5116270;28;20248;-41
2024/02/16 12:38:12;;;;;;;3.37;2.37;;;26.40;99.90;;;;;;5114285;28;20700;-41
2024/02/16 12:40:38;;;;;;;2.50;2.10;;;26.20;99.90;;;;;;5115313;28;20339;-42
2024/02/16 12:43:04;;;;;;;4.80;2.50;;;26.00;99.90;;;;;;5118213;28;20196;-44
2024/02/16 12:45:31;;;;;;;2.50;2.00;;;25.80;99.90;;;;;;5115512;28;20246;-41